sensor_id;sensor_type;location;lat;lon;timestamp;P1;durP1;ratioP1;P2;durP2;ratioP2
63201;SDS011;49296;48.188;11.566;2023-07-24T00:01:45;9.15;;;5.93;;
63201;SDS011;49296;48.188;11.566;2023-07-24T00:04:12;9.52;;;6.28;;
63201;SDS011;49296;48.188;11.566;2023-07-24T00:06:40;10.02;;;6.53;;
63201;SDS011;49296;48.188;11.566;2023-07-24T00:09:06;10.32;;;6.68;;
63201;SDS011;49296;48.188;11.566;2023-07-24T00:11:33;9.27;;;6.57;;
63201;SDS011;49296;48.188;11.566;2023-07-24T00:13:59;9.57;;;6.60;;
63201;SDS011;49296;48.188;11.566;2023-07-24T00:16:26;8.55;;;5.75;;
63201;SDS011;49296;48.188;11.566;2023-07-24T00:18:53;10.82;;;6.60;;
63201;SDS011;49296;48.188;11.566;2023-07-24T00:21:19;9.55;;;6.07;;
63201;SDS011;49296;48.188;11.566;2023-07-24T00:23:47;10.02;;;6.13;;
63201;SDS011;49296;48.188;11.566;2023-07-24T00:26:14;9.80;;;7.00;;
63201;SDS011;49296;48.188;11.566;2023-07-24T00:28:40;10.18;;;6.63;;
63201;SDS011;49296;48.188;11.566;2023-07-24T00:31:07;9.50;;;5.85;;
63201;SDS011;49296;48.188;11.566;2023-07-24T00:33:33;9.63;;;6.25;;
63201;SDS011;49296;48.188;11.566;2023-07-24T00:36:00;10.50;;;7.25;;
63201;SDS011;49296;48.188;11.566;2023-07-24T00:38:26;9.48;;;6.35;;
63201;SDS011;49296;48.188;11.566;2023-07-24T00:40:54;10.60;;;6.45;;
63201;SDS011;49296;48.188;11.566;2023-07-24T00:43:21;13.95;;;6.55;;
63201;SDS011;49296;48.188;11.566;2023-07-24T00:45:48;9.10;;;6.38;;
63201;SDS011;49296;48.188;11.566;2023-07-24T00:48:15;10.27;;;6.30;;
63201;SDS011;49296;48.188;11.566;2023-07-24T00:50:41;9.25;;;6.18;;
63201;SDS011;49296;48.188;11.566;2023-07-24T00:53:09;11.38;;;6.57;;
63201;SDS011;49296;48.188;11.566;2023-07-24T00:55:37;9.32;;;6.20;;
63201;SDS011;49296;48.188;11.566;2023-07-24T00:58:05;9.55;;;5.95;;
63201;SDS011;49296;48.188;11.566;2023-07-24T01:00:32;9.23;;;6.32;;
63201;SDS011;49296;48.188;11.566;2023-07-24T01:02:59;9.73;;;5.93;;
63201;SDS011;49296;48.188;11.566;2023-07-24T01:05:26;9.52;;;6.00;;
63201;SDS011;49296;48.188;11.566;2023-07-24T01:07:52;10.30;;;6.25;;
63201;SDS011;49296;48.188;11.566;2023-07-24T01:10:19;9.02;;;6.10;;
63201;SDS011;49296;48.188;11.566;2023-07-24T01:12:51;9.48;;;6.47;;
63201;SDS011;49296;48.188;11.566;2023-07-24T01:15:30;10.35;;;6.90;;
63201;SDS011;49296;48.188;11.566;2023-07-24T01:17:59;9.57;;;6.22;;
63201;SDS011;49296;48.188;11.566;2023-07-24T01:23:04;11.50;;;6.97;;
63201;SDS011;49296;48.188;11.566;2023-07-24T01:25:49;11.15;;;6.15;;
63201;SDS011;49296;48.188;11.566;2023-07-24T01:28:20;9.38;;;6.30;;
63201;SDS011;49296;48.188;11.566;2023-07-24T01:30:47;9.68;;;6.03;;
63201;SDS011;49296;48.188;11.566;2023-07-24T01:33:14;9.30;;;6.22;;
63201;SDS011;49296;48.188;11.566;2023-07-24T01:35:41;10.23;;;6.38;;
63201;SDS011;49296;48.188;11.566;2023-07-24T01:38:09;10.18;;;6.72;;
63201;SDS011;49296;48.188;11.566;2023-07-24T01:40:36;9.88;;;5.85;;
63201;SDS011;49296;48.188;11.566;2023-07-24T01:43:04;10.73;;;7.03;;
63201;SDS011;49296;48.188;11.566;2023-07-24T01:45:31;9.18;;;5.68;;
63201;SDS011;49296;48.188;11.566;2023-07-24T01:47:58;9.93;;;6.85;;
63201;SDS011;49296;48.188;11.566;2023-07-24T01:50:25;10.00;;;6.40;;
63201;SDS011;49296;48.188;11.566;2023-07-24T01:52:51;10.63;;;7.03;;
63201;SDS011;49296;48.188;11.566;2023-07-24T01:55:18;9.80;;;6.38;;
63201;SDS011;49296;48.188;11.566;2023-07-24T01:57:45;10.15;;;6.88;;
63201;SDS011;49296;48.188;11.566;2023-07-24T02:00:13;10.35;;;6.95;;
63201;SDS011;49296;48.188;11.566;2023-07-24T02:02:39;10.02;;;6.35;;
63201;SDS011;49296;48.188;11.566;2023-07-24T02:05:06;11.00;;;6.78;;
63201;SDS011;49296;48.188;11.566;2023-07-24T02:07:33;9.35;;;6.05;;
63201;SDS011;49296;48.188;11.566;2023-07-24T02:10:00;10.35;;;6.75;;
63201;SDS011;49296;48.188;11.566;2023-07-24T02:12:26;9.77;;;6.40;;
63201;SDS011;49296;48.188;11.566;2023-07-24T02:14:53;10.95;;;7.05;;
63201;SDS011;49296;48.188;11.566;2023-07-24T02:17:22;11.93;;;7.13;;
63201;SDS011;49296;48.188;11.566;2023-07-24T02:19:49;10.60;;;7.15;;
63201;SDS011;49296;48.188;11.566;2023-07-24T02:22:16;9.93;;;6.25;;
63201;SDS011;49296;48.188;11.566;2023-07-24T02:24:42;10.98;;;7.20;;
63201;SDS011;49296;48.188;11.566;2023-07-24T02:27:11;9.65;;;6.70;;
63201;SDS011;49296;48.188;11.566;2023-07-24T02:29:39;10.65;;;7.18;;
63201;SDS011;49296;48.188;11.566;2023-07-24T02:32:06;11.20;;;7.28;;
63201;SDS011;49296;48.188;11.566;2023-07-24T02:34:34;13.85;;;7.78;;
63201;SDS011;49296;48.188;11.566;2023-07-24T02:37:00;12.73;;;7.72;;
63201;SDS011;49296;48.188;11.566;2023-07-24T02:39:27;11.18;;;7.28;;
63201;SDS011;49296;48.188;11.566;2023-07-24T02:41:53;11.77;;;7.40;;
63201;SDS011;49296;48.188;11.566;2023-07-24T02:44:20;10.98;;;7.47;;
63201;SDS011;49296;48.188;11.566;2023-07-24T02:46:46;11.18;;;7.80;;
63201;SDS011;49296;48.188;11.566;2023-07-24T02:49:13;10.98;;;7.45;;
63201;SDS011;49296;48.188;11.566;2023-07-24T02:51:41;13.52;;;7.70;;
63201;SDS011;49296;48.188;11.566;2023-07-24T02:54:07;11.27;;;7.65;;
63201;SDS011;49296;48.188;11.566;2023-07-24T02:56:34;11.48;;;7.40;;
63201;SDS011;49296;48.188;11.566;2023-07-24T02:59:01;11.60;;;7.22;;
63201;SDS011;49296;48.188;11.566;2023-07-24T03:01:27;12.80;;;7.35;;
63201;SDS011;49296;48.188;11.566;2023-07-24T03:03:54;10.52;;;7.32;;
63201;SDS011;49296;48.188;11.566;2023-07-24T03:06:20;11.73;;;7.85;;
63201;SDS011;49296;48.188;11.566;2023-07-24T03:08:48;11.60;;;7.43;;
63201;SDS011;49296;48.188;11.566;2023-07-24T03:11:15;13.23;;;8.85;;
63201;SDS011;49296;48.188;11.566;2023-07-24T03:13:41;12.35;;;7.30;;
63201;SDS011;49296;48.188;11.566;2023-07-24T03:16:08;15.52;;;8.68;;
63201;SDS011;49296;48.188;11.566;2023-07-24T03:18:35;12.93;;;7.40;;
63201;SDS011;49296;48.188;11.566;2023-07-24T03:21:01;13.98;;;8.07;;
63201;SDS011;49296;48.188;11.566;2023-07-24T03:23:29;14.32;;;7.75;;
63201;SDS011;49296;48.188;11.566;2023-07-24T03:25:57;10.90;;;7.50;;
63201;SDS011;49296;48.188;11.566;2023-07-24T03:28:23;12.30;;;7.55;;
63201;SDS011;49296;48.188;11.566;2023-07-24T03:30:50;12.57;;;7.80;;
63201;SDS011;49296;48.188;11.566;2023-07-24T03:33:17;11.52;;;8.07;;
63201;SDS011;49296;48.188;11.566;2023-07-24T03:35:43;13.18;;;7.97;;
63201;SDS011;49296;48.188;11.566;2023-07-24T03:38:10;11.85;;;7.47;;
63201;SDS011;49296;48.188;11.566;2023-07-24T03:40:36;14.55;;;8.68;;
63201;SDS011;49296;48.188;11.566;2023-07-24T03:43:04;12.50;;;7.72;;
63201;SDS011;49296;48.188;11.566;2023-07-24T03:45:31;13.15;;;8.07;;
63201;SDS011;49296;48.188;11.566;2023-07-24T03:47:57;12.80;;;7.90;;
63201;SDS011;49296;48.188;11.566;2023-07-24T03:50:24;13.93;;;8.43;;
63201;SDS011;49296;48.188;11.566;2023-07-24T03:52:50;13.05;;;8.13;;
63201;SDS011;49296;48.188;11.566;2023-07-24T03:55:17;14.10;;;8.23;;
63201;SDS011;49296;48.188;11.566;2023-07-24T03:57:43;15.90;;;8.27;;
63201;SDS011;49296;48.188;11.566;2023-07-24T04:00:12;13.02;;;8.73;;
63201;SDS011;49296;48.188;11.566;2023-07-24T04:02:39;14.43;;;8.43;;
63201;SDS011;49296;48.188;11.566;2023-07-24T04:05:06;14.65;;;8.70;;
63201;SDS011;49296;48.188;11.566;2023-07-24T04:07:33;16.52;;;9.63;;
63201;SDS011;49296;48.188;11.566;2023-07-24T04:09:59;15.65;;;8.65;;
63201;SDS011;49296;48.188;11.566;2023-07-24T04:12:28;14.88;;;8.65;;
63201;SDS011;49296;48.188;11.566;2023-07-24T04:14:55;14.48;;;8.10;;
63201;SDS011;49296;48.188;11.566;2023-07-24T04:17:23;15.00;;;8.65;;
63201;SDS011;49296;48.188;11.566;2023-07-24T04:19:49;14.18;;;8.98;;
63201;SDS011;49296;48.188;11.566;2023-07-24T04:22:16;14.43;;;8.82;;
63201;SDS011;49296;48.188;11.566;2023-07-24T04:24:43;12.77;;;7.47;;
63201;SDS011;49296;48.188;11.566;2023-07-24T04:27:09;14.15;;;8.50;;
63201;SDS011;49296;48.188;11.566;2023-07-24T04:29:36;15.30;;;9.43;;
63201;SDS011;49296;48.188;11.566;2023-07-24T04:32:03;14.43;;;8.38;;
63201;SDS011;49296;48.188;11.566;2023-07-24T04:34:31;13.80;;;8.77;;
63201;SDS011;49296;48.188;11.566;2023-07-24T04:36:58;14.40;;;9.23;;
63201;SDS011;49296;48.188;11.566;2023-07-24T04:39:25;14.45;;;9.27;;
63201;SDS011;49296;48.188;11.566;2023-07-24T04:41:51;16.10;;;10.00;;
63201;SDS011;49296;48.188;11.566;2023-07-24T04:44:18;16.17;;;9.20;;
63201;SDS011;49296;48.188;11.566;2023-07-24T04:46:44;12.80;;;8.82;;
63201;SDS011;49296;48.188;11.566;2023-07-24T04:49:11;13.48;;;8.90;;
63201;SDS011;49296;48.188;11.566;2023-07-24T04:51:39;16.48;;;8.70;;
63201;SDS011;49296;48.188;11.566;2023-07-24T04:54:05;17.85;;;9.52;;
63201;SDS011;49296;48.188;11.566;2023-07-24T04:56:32;15.35;;;8.88;;
63201;SDS011;49296;48.188;11.566;2023-07-24T04:58:58;14.63;;;8.57;;
63201;SDS011;49296;48.188;11.566;2023-07-24T05:01:25;13.23;;;9.07;;
63201;SDS011;49296;48.188;11.566;2023-07-24T05:03:51;13.25;;;7.63;;
63201;SDS011;49296;48.188;11.566;2023-07-24T05:06:18;13.02;;;8.05;;
63201;SDS011;49296;48.188;11.566;2023-07-24T05:08:46;13.68;;;7.88;;
63201;SDS011;49296;48.188;11.566;2023-07-24T05:11:12;13.25;;;8.00;;
63201;SDS011;49296;48.188;11.566;2023-07-24T05:13:39;14.05;;;8.73;;
63201;SDS011;49296;48.188;11.566;2023-07-24T05:16:05;14.35;;;9.55;;
63201;SDS011;49296;48.188;11.566;2023-07-24T05:18:32;12.75;;;8.13;;
63201;SDS011;49296;48.188;11.566;2023-07-24T05:20:58;14.77;;;8.18;;
63201;SDS011;49296;48.188;11.566;2023-07-24T05:23:25;13.05;;;8.30;;
63201;SDS011;49296;48.188;11.566;2023-07-24T05:25:57;12.77;;;8.23;;
63201;SDS011;49296;48.188;11.566;2023-07-24T05:28:24;11.88;;;7.72;;
63201;SDS011;49296;48.188;11.566;2023-07-24T05:30:51;12.20;;;8.00;;
63201;SDS011;49296;48.188;11.566;2023-07-24T05:33:17;11.27;;;7.15;;
63201;SDS011;49296;48.188;11.566;2023-07-24T05:35:44;13.07;;;8.05;;
63201;SDS011;49296;48.188;11.566;2023-07-24T05:38:10;12.52;;;8.10;;
63201;SDS011;49296;48.188;11.566;2023-07-24T05:40:37;12.93;;;8.32;;
63201;SDS011;49296;48.188;11.566;2023-07-24T05:43:05;13.40;;;8.50;;
63201;SDS011;49296;48.188;11.566;2023-07-24T05:45:31;12.85;;;8.48;;
63201;SDS011;49296;48.188;11.566;2023-07-24T05:47:58;13.00;;;7.85;;
63201;SDS011;49296;48.188;11.566;2023-07-24T05:50:25;12.93;;;7.97;;
63201;SDS011;49296;48.188;11.566;2023-07-24T05:52:51;13.27;;;8.07;;
63201;SDS011;49296;48.188;11.566;2023-07-24T05:55:18;11.48;;;7.43;;
63201;SDS011;49296;48.188;11.566;2023-07-24T05:57:44;13.23;;;7.75;;
63201;SDS011;49296;48.188;11.566;2023-07-24T06:00:12;11.55;;;7.85;;
63201;SDS011;49296;48.188;11.566;2023-07-24T06:02:39;13.35;;;8.73;;
63201;SDS011;49296;48.188;11.566;2023-07-24T06:05:06;13.93;;;8.32;;
63201;SDS011;49296;48.188;11.566;2023-07-24T06:07:33;11.38;;;7.47;;
63201;SDS011;49296;48.188;11.566;2023-07-24T06:09:59;14.85;;;8.05;;
63201;SDS011;49296;48.188;11.566;2023-07-24T06:12:26;11.82;;;7.50;;
63201;SDS011;49296;48.188;11.566;2023-07-24T06:14:52;12.05;;;8.07;;
63201;SDS011;49296;48.188;11.566;2023-07-24T06:17:20;10.02;;;7.00;;
63201;SDS011;49296;48.188;11.566;2023-07-24T06:19:47;12.40;;;7.93;;
63201;SDS011;49296;48.188;11.566;2023-07-24T06:22:13;12.18;;;7.75;;
63201;SDS011;49296;48.188;11.566;2023-07-24T06:24:40;11.85;;;7.78;;
63201;SDS011;49296;48.188;11.566;2023-07-24T06:27:07;15.13;;;7.70;;
63201;SDS011;49296;48.188;11.566;2023-07-24T06:29:33;11.15;;;7.45;;
63201;SDS011;49296;48.188;11.566;2023-07-24T06:32:00;10.43;;;7.22;;
63201;SDS011;49296;48.188;11.566;2023-07-24T06:34:28;11.18;;;7.28;;
63201;SDS011;49296;48.188;11.566;2023-07-24T06:36:54;13.10;;;7.53;;
63201;SDS011;49296;48.188;11.566;2023-07-24T06:39:21;12.98;;;8.15;;
63201;SDS011;49296;48.188;11.566;2023-07-24T06:41:47;12.60;;;7.10;;
63201;SDS011;49296;48.188;11.566;2023-07-24T06:44:14;12.73;;;7.90;;
63201;SDS011;49296;48.188;11.566;2023-07-24T06:46:41;12.52;;;7.32;;
63201;SDS011;49296;48.188;11.566;2023-07-24T06:49:07;12.55;;;8.15;;
63201;SDS011;49296;48.188;11.566;2023-07-24T06:51:36;10.93;;;7.60;;
63201;SDS011;49296;48.188;11.566;2023-07-24T06:54:03;11.57;;;7.70;;
63201;SDS011;49296;48.188;11.566;2023-07-24T06:56:30;13.95;;;8.48;;
63201;SDS011;49296;48.188;11.566;2023-07-24T06:58:56;12.68;;;7.65;;
63201;SDS011;49296;48.188;11.566;2023-07-24T07:01:23;11.95;;;8.02;;
63201;SDS011;49296;48.188;11.566;2023-07-24T07:03:49;13.45;;;7.93;;
63201;SDS011;49296;48.188;11.566;2023-07-24T07:06:16;11.00;;;7.63;;
63201;SDS011;49296;48.188;11.566;2023-07-24T07:08:44;12.45;;;7.78;;
63201;SDS011;49296;48.188;11.566;2023-07-24T07:11:10;14.70;;;8.13;;
63201;SDS011;49296;48.188;11.566;2023-07-24T07:13:37;11.55;;;7.50;;
63201;SDS011;49296;48.188;11.566;2023-07-24T07:16:04;11.27;;;7.45;;
63201;SDS011;49296;48.188;11.566;2023-07-24T07:18:30;13.48;;;8.63;;
63201;SDS011;49296;48.188;11.566;2023-07-24T07:20:57;14.15;;;8.65;;
63201;SDS011;49296;48.188;11.566;2023-07-24T07:23:24;12.05;;;8.63;;
63201;SDS011;49296;48.188;11.566;2023-07-24T07:25:52;15.45;;;9.00;;
63201;SDS011;49296;48.188;11.566;2023-07-24T07:28:18;15.02;;;9.25;;
63201;SDS011;49296;48.188;11.566;2023-07-24T07:30:45;12.98;;;8.65;;
63201;SDS011;49296;48.188;11.566;2023-07-24T07:33:11;11.43;;;7.65;;
63201;SDS011;49296;48.188;11.566;2023-07-24T07:35:38;10.35;;;6.78;;
63201;SDS011;49296;48.188;11.566;2023-07-24T07:38:05;11.77;;;7.28;;
63201;SDS011;49296;48.188;11.566;2023-07-24T07:40:31;13.35;;;7.82;;
63201;SDS011;49296;48.188;11.566;2023-07-24T07:42:59;11.70;;;7.50;;
63201;SDS011;49296;48.188;11.566;2023-07-24T07:45:26;12.95;;;8.18;;
63201;SDS011;49296;48.188;11.566;2023-07-24T07:47:52;12.85;;;7.68;;
63201;SDS011;49296;48.188;11.566;2023-07-24T07:50:19;12.75;;;8.35;;
63201;SDS011;49296;48.188;11.566;2023-07-24T07:52:49;13.00;;;7.85;;
63201;SDS011;49296;48.188;11.566;2023-07-24T07:55:16;13.77;;;8.00;;
63201;SDS011;49296;48.188;11.566;2023-07-24T07:57:44;12.63;;;8.65;;
63201;SDS011;49296;48.188;11.566;2023-07-24T08:00:12;12.68;;;7.82;;
63201;SDS011;49296;48.188;11.566;2023-07-24T08:02:39;13.68;;;8.52;;
63201;SDS011;49296;48.188;11.566;2023-07-24T08:05:07;15.00;;;8.23;;
63201;SDS011;49296;48.188;11.566;2023-07-24T08:07:33;13.38;;;8.27;;
63201;SDS011;49296;48.188;11.566;2023-07-24T08:10:00;13.88;;;8.27;;
63201;SDS011;49296;48.188;11.566;2023-07-24T08:12:27;13.50;;;7.57;;
63201;SDS011;49296;48.188;11.566;2023-07-24T08:14:53;12.50;;;7.75;;
63201;SDS011;49296;48.188;11.566;2023-07-24T08:17:21;13.40;;;8.38;;
63201;SDS011;49296;48.188;11.566;2023-07-24T08:19:48;12.85;;;8.05;;
63201;SDS011;49296;48.188;11.566;2023-07-24T08:22:15;13.90;;;7.13;;
63201;SDS011;49296;48.188;11.566;2023-07-24T08:24:41;10.95;;;6.75;;
63201;SDS011;49296;48.188;11.566;2023-07-24T08:27:09;10.90;;;6.88;;
63201;SDS011;49296;48.188;11.566;2023-07-24T08:29:36;11.48;;;7.00;;
63201;SDS011;49296;48.188;11.566;2023-07-24T08:32:03;9.88;;;6.03;;
63201;SDS011;49296;48.188;11.566;2023-07-24T08:34:31;11.48;;;6.80;;
63201;SDS011;49296;48.188;11.566;2023-07-24T08:36:58;8.43;;;5.60;;
63201;SDS011;49296;48.188;11.566;2023-07-24T08:39:25;10.38;;;6.78;;
63201;SDS011;49296;48.188;11.566;2023-07-24T08:41:51;9.70;;;5.70;;
63201;SDS011;49296;48.188;11.566;2023-07-24T08:44:18;10.82;;;6.10;;
63201;SDS011;49296;48.188;11.566;2023-07-24T08:46:44;9.90;;;6.35;;
63201;SDS011;49296;48.188;11.566;2023-07-24T08:49:12;11.98;;;6.13;;
63201;SDS011;49296;48.188;11.566;2023-07-24T08:51:40;8.77;;;5.65;;
63201;SDS011;49296;48.188;11.566;2023-07-24T08:54:07;8.88;;;5.38;;
63201;SDS011;49296;48.188;11.566;2023-07-24T08:56:35;11.38;;;5.75;;
63201;SDS011;49296;48.188;11.566;2023-07-24T08:59:03;9.82;;;6.03;;
63201;SDS011;49296;48.188;11.566;2023-07-24T09:01:29;10.88;;;5.88;;
63201;SDS011;49296;48.188;11.566;2023-07-24T09:03:56;10.57;;;6.53;;
63201;SDS011;49296;48.188;11.566;2023-07-24T09:06:23;9.85;;;6.63;;
63201;SDS011;49296;48.188;11.566;2023-07-24T09:08:53;11.00;;;6.72;;
63201;SDS011;49296;48.188;11.566;2023-07-24T09:11:20;11.13;;;6.78;;
63201;SDS011;49296;48.188;11.566;2023-07-24T09:13:46;10.23;;;6.05;;
63201;SDS011;49296;48.188;11.566;2023-07-24T09:16:21;9.70;;;6.18;;
63201;SDS011;49296;48.188;11.566;2023-07-24T09:18:48;10.55;;;6.38;;
63201;SDS011;49296;48.188;11.566;2023-07-24T09:21:26;10.05;;;6.90;;
63201;SDS011;49296;48.188;11.566;2023-07-24T09:23:55;12.70;;;7.53;;
63201;SDS011;49296;48.188;11.566;2023-07-24T09:26:22;10.88;;;7.05;;
63201;SDS011;49296;48.188;11.566;2023-07-24T09:28:51;11.23;;;7.07;;
63201;SDS011;49296;48.188;11.566;2023-07-24T09:31:18;12.35;;;6.95;;
63201;SDS011;49296;48.188;11.566;2023-07-24T09:33:45;12.23;;;7.50;;
63201;SDS011;49296;48.188;11.566;2023-07-24T09:36:12;10.75;;;6.93;;
63201;SDS011;49296;48.188;11.566;2023-07-24T09:38:39;11.93;;;7.65;;
63201;SDS011;49296;48.188;11.566;2023-07-24T09:41:07;9.98;;;6.85;;
63201;SDS011;49296;48.188;11.566;2023-07-24T09:43:34;12.45;;;8.05;;
63201;SDS011;49296;48.188;11.566;2023-07-24T09:46:01;13.40;;;8.63;;
63201;SDS011;49296;48.188;11.566;2023-07-24T09:48:30;12.87;;;7.87;;
63201;SDS011;49296;48.188;11.566;2023-07-24T09:50:58;12.43;;;7.35;;
63201;SDS011;49296;48.188;11.566;2023-07-24T09:53:28;11.65;;;7.20;;
63201;SDS011;49296;48.188;11.566;2023-07-24T09:55:58;12.52;;;7.35;;
63201;SDS011;49296;48.188;11.566;2023-07-24T09:58:28;11.77;;;6.03;;
63201;SDS011;49296;48.188;11.566;2023-07-24T10:00:55;10.05;;;6.05;;
63201;SDS011;49296;48.188;11.566;2023-07-24T10:03:23;9.45;;;5.95;;
63201;SDS011;49296;48.188;11.566;2023-07-24T10:05:52;10.88;;;6.53;;
63201;SDS011;49296;48.188;11.566;2023-07-24T10:08:19;10.07;;;6.18;;
63201;SDS011;49296;48.188;11.566;2023-07-24T10:10:48;9.35;;;5.82;;
63201;SDS011;49296;48.188;11.566;2023-07-24T10:13:16;10.68;;;5.90;;
63201;SDS011;49296;48.188;11.566;2023-07-24T10:15:46;9.50;;;5.78;;
63201;SDS011;49296;48.188;11.566;2023-07-24T10:18:14;9.07;;;6.30;;
63201;SDS011;49296;48.188;11.566;2023-07-24T10:20:42;8.30;;;5.00;;
63201;SDS011;49296;48.188;11.566;2023-07-24T10:23:09;8.50;;;5.18;;
63201;SDS011;49296;48.188;11.566;2023-07-24T10:25:37;8.77;;;5.72;;
63201;SDS011;49296;48.188;11.566;2023-07-24T10:28:06;7.85;;;5.05;;
63201;SDS011;49296;48.188;11.566;2023-07-24T10:30:36;9.45;;;5.10;;
63201;SDS011;49296;48.188;11.566;2023-07-24T10:33:06;8.88;;;5.40;;
63201;SDS011;49296;48.188;11.566;2023-07-24T10:35:36;9.20;;;5.65;;
63201;SDS011;49296;48.188;11.566;2023-07-24T10:38:04;8.73;;;5.10;;
63201;SDS011;49296;48.188;11.566;2023-07-24T10:40:30;7.25;;;4.60;;
63201;SDS011;49296;48.188;11.566;2023-07-24T10:42:59;8.50;;;5.05;;
63201;SDS011;49296;48.188;11.566;2023-07-24T10:45:26;10.00;;;5.13;;
63201;SDS011;49296;48.188;11.566;2023-07-24T10:48:06;9.23;;;5.32;;
63201;SDS011;49296;48.188;11.566;2023-07-24T10:50:36;9.55;;;5.07;;
63201;SDS011;49296;48.188;11.566;2023-07-24T10:53:04;8.13;;;4.70;;
63201;SDS011;49296;48.188;11.566;2023-07-24T10:55:30;9.20;;;5.20;;
63201;SDS011;49296;48.188;11.566;2023-07-24T10:57:57;6.75;;;4.57;;
63201;SDS011;49296;48.188;11.566;2023-07-24T11:00:25;8.10;;;4.47;;
63201;SDS011;49296;48.188;11.566;2023-07-24T11:02:52;7.97;;;4.90;;
63201;SDS011;49296;48.188;11.566;2023-07-24T11:05:21;9.05;;;4.90;;
63201;SDS011;49296;48.188;11.566;2023-07-24T11:07:47;8.57;;;5.07;;
63201;SDS011;49296;48.188;11.566;2023-07-24T11:10:15;8.02;;;4.80;;
63201;SDS011;49296;48.188;11.566;2023-07-24T11:12:41;6.70;;;4.10;;
63201;SDS011;49296;48.188;11.566;2023-07-24T11:15:09;7.30;;;4.43;;
63201;SDS011;49296;48.188;11.566;2023-07-24T11:17:37;9.20;;;4.90;;
63201;SDS011;49296;48.188;11.566;2023-07-24T11:20:06;7.72;;;3.95;;
63201;SDS011;49296;48.188;11.566;2023-07-24T11:22:37;6.93;;;3.65;;
63201;SDS011;49296;48.188;11.566;2023-07-24T11:27:31;7.97;;;3.80;;
63201;SDS011;49296;48.188;11.566;2023-07-24T11:29:58;7.10;;;3.75;;
63201;SDS011;49296;48.188;11.566;2023-07-24T11:32:25;6.93;;;4.18;;
63201;SDS011;49296;48.188;11.566;2023-07-24T11:34:51;6.50;;;3.80;;
63201;SDS011;49296;48.188;11.566;2023-07-24T11:37:18;7.97;;;4.38;;
63201;SDS011;49296;48.188;11.566;2023-07-24T11:39:55;9.73;;;5.18;;
63201;SDS011;49296;48.188;11.566;2023-07-24T11:42:24;7.88;;;4.13;;
63201;SDS011;49296;48.188;11.566;2023-07-24T11:44:51;10.35;;;5.07;;
63201;SDS011;49296;48.188;11.566;2023-07-24T11:47:20;8.07;;;4.45;;
63201;SDS011;49296;48.188;11.566;2023-07-24T11:49:56;7.95;;;4.60;;
63201;SDS011;49296;48.188;11.566;2023-07-24T11:52:23;5.88;;;3.75;;
63201;SDS011;49296;48.188;11.566;2023-07-24T11:54:56;5.40;;;3.42;;
63201;SDS011;49296;48.188;11.566;2023-07-24T11:57:26;6.55;;;3.72;;
63201;SDS011;49296;48.188;11.566;2023-07-24T11:59:53;6.00;;;3.55;;
63201;SDS011;49296;48.188;11.566;2023-07-24T12:02:22;7.13;;;3.92;;
63201;SDS011;49296;48.188;11.566;2023-07-24T12:04:53;7.25;;;3.40;;
63201;SDS011;49296;48.188;11.566;2023-07-24T12:07:21;8.20;;;4.20;;
63201;SDS011;49296;48.188;11.566;2023-07-24T12:09:50;6.72;;;4.00;;
63201;SDS011;49296;48.188;11.566;2023-07-24T12:12:19;6.38;;;3.95;;
63201;SDS011;49296;48.188;11.566;2023-07-24T12:14:45;6.75;;;3.88;;
63201;SDS011;49296;48.188;11.566;2023-07-24T12:17:17;7.35;;;4.10;;
63201;SDS011;49296;48.188;11.566;2023-07-24T12:19:45;7.50;;;4.70;;
63201;SDS011;49296;48.188;11.566;2023-07-24T12:22:12;7.32;;;4.47;;
63201;SDS011;49296;48.188;11.566;2023-07-24T12:24:38;8.13;;;4.70;;
63201;SDS011;49296;48.188;11.566;2023-07-24T12:27:05;6.75;;;3.70;;
63201;SDS011;49296;48.188;11.566;2023-07-24T12:29:33;6.97;;;4.40;;
63201;SDS011;49296;48.188;11.566;2023-07-24T12:32:00;7.30;;;4.53;;
63201;SDS011;49296;48.188;11.566;2023-07-24T12:34:28;9.13;;;4.97;;
63201;SDS011;49296;48.188;11.566;2023-07-24T12:36:55;7.47;;;4.40;;
63201;SDS011;49296;48.188;11.566;2023-07-24T12:39:21;8.32;;;4.88;;
63201;SDS011;49296;48.188;11.566;2023-07-24T12:41:48;7.32;;;5.32;;
63201;SDS011;49296;48.188;11.566;2023-07-24T12:44:14;7.45;;;4.13;;
63201;SDS011;49296;48.188;11.566;2023-07-24T12:46:42;8.05;;;4.63;;
63201;SDS011;49296;48.188;11.566;2023-07-24T12:49:09;8.05;;;4.60;;
63201;SDS011;49296;48.188;11.566;2023-07-24T12:51:36;7.18;;;4.60;;
63201;SDS011;49296;48.188;11.566;2023-07-24T12:54:02;7.32;;;4.60;;
63201;SDS011;49296;48.188;11.566;2023-07-24T12:56:29;8.52;;;4.93;;
63201;SDS011;49296;48.188;11.566;2023-07-24T12:58:55;8.60;;;4.35;;
63201;SDS011;49296;48.188;11.566;2023-07-24T13:01:22;8.65;;;5.07;;
63201;SDS011;49296;48.188;11.566;2023-07-24T13:03:50;6.95;;;4.50;;
63201;SDS011;49296;48.188;11.566;2023-07-24T13:06:17;6.35;;;4.05;;
63201;SDS011;49296;48.188;11.566;2023-07-24T13:08:43;8.35;;;4.22;;
63201;SDS011;49296;48.188;11.566;2023-07-24T13:11:10;7.30;;;4.28;;
63201;SDS011;49296;48.188;11.566;2023-07-24T13:13:36;6.63;;;4.28;;
63201;SDS011;49296;48.188;11.566;2023-07-24T13:16:03;8.82;;;4.03;;
63201;SDS011;49296;48.188;11.566;2023-07-24T13:18:30;7.95;;;3.80;;
63201;SDS011;49296;48.188;11.566;2023-07-24T13:20:58;7.00;;;4.00;;
63201;SDS011;49296;48.188;11.566;2023-07-24T13:23:24;6.05;;;4.10;;
63201;SDS011;49296;48.188;11.566;2023-07-24T13:25:51;6.63;;;3.97;;
63201;SDS011;49296;48.188;11.566;2023-07-24T13:28:18;6.88;;;3.95;;
63201;SDS011;49296;48.188;11.566;2023-07-24T13:30:45;6.70;;;3.60;;
63201;SDS011;49296;48.188;11.566;2023-07-24T13:33:12;6.72;;;3.65;;
63201;SDS011;49296;48.188;11.566;2023-07-24T13:35:39;8.85;;;3.85;;
63201;SDS011;49296;48.188;11.566;2023-07-24T13:38:06;8.00;;;4.53;;
63201;SDS011;49296;48.188;11.566;2023-07-24T13:40:34;6.60;;;3.67;;
63201;SDS011;49296;48.188;11.566;2023-07-24T13:43:00;6.88;;;4.25;;
63201;SDS011;49296;48.188;11.566;2023-07-24T13:45:27;7.00;;;4.03;;
63201;SDS011;49296;48.188;11.566;2023-07-24T13:47:54;6.43;;;4.25;;
63201;SDS011;49296;48.188;11.566;2023-07-24T13:50:20;6.20;;;3.25;;
63201;SDS011;49296;48.188;11.566;2023-07-24T13:52:47;6.65;;;3.78;;
63201;SDS011;49296;48.188;11.566;2023-07-24T13:55:15;6.00;;;3.42;;
63201;SDS011;49296;48.188;11.566;2023-07-24T13:57:41;7.03;;;3.90;;
63201;SDS011;49296;48.188;11.566;2023-07-24T14:00:08;7.60;;;3.83;;
63201;SDS011;49296;48.188;11.566;2023-07-24T14:02:36;7.25;;;3.80;;
63201;SDS011;49296;48.188;11.566;2023-07-24T14:05:02;6.65;;;4.18;;
63201;SDS011;49296;48.188;11.566;2023-07-24T14:07:29;6.50;;;3.58;;
63201;SDS011;49296;48.188;11.566;2023-07-24T14:09:56;6.60;;;3.92;;
63201;SDS011;49296;48.188;11.566;2023-07-24T14:12:24;7.95;;;3.78;;
63201;SDS011;49296;48.188;11.566;2023-07-24T14:14:50;7.40;;;4.28;;
63201;SDS011;49296;48.188;11.566;2023-07-24T14:17:17;7.93;;;4.70;;
63201;SDS011;49296;48.188;11.566;2023-07-24T14:19:44;8.77;;;4.32;;
63201;SDS011;49296;48.188;11.566;2023-07-24T14:22:11;6.70;;;3.63;;
63201;SDS011;49296;48.188;11.566;2023-07-24T14:24:40;8.03;;;3.97;;
63201;SDS011;49296;48.188;11.566;2023-07-24T14:27:06;7.50;;;3.88;;
63201;SDS011;49296;48.188;11.566;2023-07-24T14:29:34;7.13;;;3.90;;
63201;SDS011;49296;48.188;11.566;2023-07-24T14:32:01;8.25;;;4.28;;